createdAt,value
2024-01-15T00:02:04.033Z,19.50
2024-01-15T00:04:30.709Z,25.45
2024-01-15T00:06:57.762Z,24.63
2024-01-15T00:09:24.571Z,24.30
2024-01-15T00:11:51.246Z,19.60
2024-01-15T00:14:21.147Z,21.88
2024-01-15T00:16:50.505Z,19.38
2024-01-15T00:19:17.313Z,23.02
2024-01-15T00:21:44.694Z,16.33
2024-01-15T00:24:11.556Z,22.45
2024-01-15T00:26:38.186Z,27.85
2024-01-15T00:29:04.921Z,23.02
2024-01-15T00:31:31.698Z,17.08
2024-01-15T00:34:01.302Z,22.65
2024-01-15T00:36:28.113Z,20.80
2024-01-15T00:38:55.080Z,25.27
2024-01-15T00:41:21.750Z,24.58
2024-01-15T00:43:50.330Z,20.85
2024-01-15T00:46:16.997Z,22.63
2024-01-15T00:48:43.759Z,26.30
2024-01-15T00:51:10.574Z,22.92
2024-01-15T00:53:37.237Z,21.67
2024-01-15T00:56:04.355Z,23.70
2024-01-15T00:58:31.087Z,17.15
2024-01-15T01:00:57.853Z,26.50
2024-01-15T01:03:24.808Z,28.65
2024-01-15T01:05:51.598Z,25.63
2024-01-15T01:08:18.218Z,22.80
2024-01-15T01:10:44.933Z,18.02
2024-01-15T01:13:11.753Z,21.73
2024-01-15T01:15:39.617Z,16.52
2024-01-15T01:18:07.322Z,18.85
2024-01-15T01:20:34.200Z,21.65
2024-01-15T01:23:00.955Z,26.35
2024-01-15T01:25:28.174Z,22.52
2024-01-15T01:27:54.784Z,22.95
2024-01-15T01:30:21.634Z,23.20
2024-01-15T01:32:48.411Z,24.38
2024-01-15T01:35:15.238Z,17.73
2024-01-15T01:37:41.918Z,26.17
2024-01-15T01:40:09.189Z,30.48
2024-01-15T01:42:35.880Z,25.23
2024-01-15T01:45:02.596Z,23.40
2024-01-15T01:47:29.531Z,26.25
2024-01-15T01:49:56.288Z,25.08
2024-01-15T01:52:23.502Z,28.17
2024-01-15T01:54:50.717Z,25.50
2024-01-15T01:57:18.872Z,19.58
2024-01-15T01:59:46.698Z,22.63
2024-01-15T02:02:13.352Z,23.50
2024-01-15T02:04:41.018Z,27.25
2024-01-15T02:07:07.804Z,24.98
2024-01-15T02:09:34.991Z,20.77
2024-01-15T02:12:01.815Z,25.02
2024-01-15T02:14:28.483Z,22.83
2024-01-15T02:16:55.310Z,24.67
2024-01-15T02:19:22.030Z,21.65
2024-01-15T02:21:48.821Z,23.15
2024-01-15T02:24:15.674Z,32.10
2024-01-15T02:26:42.451Z,23.83
2024-01-15T02:29:09.805Z,21.50
2024-01-15T02:31:37.780Z,22.92
2024-01-15T02:34:05.045Z,19.10
2024-01-15T02:36:31.777Z,20.42
2024-01-15T02:38:58.479Z,21.83
2024-01-15T02:41:25.117Z,21.80
2024-01-15T02:43:51.832Z,26.10
2024-01-15T02:46:18.557Z,20.02
2024-01-15T02:48:45.437Z,27.67
2024-01-15T02:51:12.242Z,27.27
2024-01-15T02:53:39.877Z,26.48
2024-01-15T02:56:08.701Z,22.70
2024-01-15T02:58:35.364Z,19.27
2024-01-15T03:01:02.193Z,26.23
2024-01-15T03:03:29.373Z,20.67
2024-01-15T03:05:56.285Z,19.38
2024-01-15T03:08:23.845Z,19.17
2024-01-15T03:10:51.020Z,25.02
2024-01-15T03:13:17.650Z,20.60
2024-01-15T03:15:44.865Z,21.85
2024-01-15T03:18:11.829Z,25.58
2024-01-15T03:20:38.572Z,20.67
2024-01-15T03:23:05.287Z,22.38
2024-01-15T03:25:31.900Z,21.15
2024-01-15T03:27:58.485Z,21.50
2024-01-15T03:30:25.255Z,24.13
2024-01-15T03:32:52.198Z,24.35
2024-01-15T03:35:27.717Z,22.17
2024-01-15T03:37:54.338Z,26.92
2024-01-15T03:40:23.376Z,28.52
2024-01-15T03:42:50.724Z,22.38
2024-01-15T03:45:17.489Z,20.63
2024-01-15T03:47:44.225Z,26.60
2024-01-15T03:50:11.006Z,19.30
2024-01-15T03:52:37.665Z,22.55
2024-01-15T03:55:05.806Z,19.95
2024-01-15T03:57:32.493Z,23.48
2024-01-15T03:59:59.116Z,21.85
2024-01-15T04:02:25.712Z,20.50
2024-01-15T04:04:52.427Z,24.60
2024-01-15T04:07:19.122Z,20.33
2024-01-15T04:09:45.817Z,20.02
2024-01-15T04:12:12.581Z,25.88
2024-01-15T04:14:39.219Z,20.30
2024-01-15T04:17:05.839Z,16.08
2024-01-15T04:19:32.554Z,19.70
2024-01-15T04:21:59.245Z,20.95
2024-01-15T04:24:25.901Z,23.23
2024-01-15T04:26:52.871Z,18.65
2024-01-15T04:29:19.454Z,24.17
2024-01-15T04:31:46.235Z,21.98
2024-01-15T04:34:13.016Z,21.13
2024-01-15T04:36:41.479Z,23.58
2024-01-15T04:39:08.575Z,25.30
2024-01-15T04:41:35.694Z,22.08
2024-01-15T04:44:03.395Z,24.08
2024-01-15T04:46:30.096Z,19.65
2024-01-15T04:48:57.204Z,23.65
2024-01-15T04:51:23.903Z,24.58
2024-01-15T04:53:50.602Z,22.10
2024-01-15T04:56:17.828Z,22.23
2024-01-15T04:58:44.421Z,24.27
2024-01-15T05:01:11.426Z,20.00
2024-01-15T05:03:38.292Z,24.13
2024-01-15T05:06:05.512Z,20.17
2024-01-15T05:08:32.263Z,24.55
2024-01-15T05:10:58.904Z,20.75
2024-01-15T05:13:25.591Z,17.25
2024-01-15T05:15:52.321Z,18.02
2024-01-15T05:18:19.332Z,21.58
2024-01-15T05:20:46.234Z,25.90
2024-01-15T05:23:12.914Z,22.30
2024-01-15T05:25:39.533Z,23.92
2024-01-15T05:28:06.741Z,20.67
2024-01-15T05:30:33.540Z,16.67
2024-01-15T05:33:01.571Z,19.08
2024-01-15T05:35:28.273Z,19.75
2024-01-15T05:37:54.941Z,19.38
2024-01-15T05:40:21.718Z,19.00
2024-01-15T05:42:48.564Z,20.52
2024-01-15T05:45:15.541Z,27.17
2024-01-15T05:47:42.346Z,21.13
2024-01-15T05:50:09.680Z,24.15
2024-01-15T05:52:36.586Z,15.65
2024-01-15T05:55:03.465Z,25.58
2024-01-15T05:57:30.223Z,20.23
2024-01-15T05:59:56.972Z,24.35
2024-01-15T06:02:23.672Z,21.50
2024-01-15T06:04:50.459Z,23.67
2024-01-15T06:07:17.459Z,25.88
2024-01-15T06:09:44.145Z,23.40
2024-01-15T06:12:11.082Z,14.57
2024-01-15T06:14:37.751Z,24.60
2024-01-15T06:17:04.643Z,26.13
2024-01-15T06:19:31.528Z,23.35
2024-01-15T06:21:58.490Z,18.45
2024-01-15T06:24:25.413Z,22.92
2024-01-15T06:26:52.222Z,21.33
2024-01-15T06:29:19.274Z,19.98
2024-01-15T06:31:45.964Z,23.92
2024-01-15T06:34:13.170Z,29.80
2024-01-15T06:36:39.988Z,16.35
2024-01-15T06:39:06.600Z,18.85
2024-01-15T06:41:33.280Z,18.60
2024-01-15T06:43:59.885Z,21.27
2024-01-15T06:46:26.475Z,17.40
2024-01-15T06:48:53.143Z,23.27
2024-01-15T06:51:19.823Z,15.70
2024-01-15T06:53:46.415Z,21.88
2024-01-15T06:56:13.112Z,25.92
2024-01-15T06:58:39.745Z,16.40
2024-01-15T07:01:06.944Z,27.17
2024-01-15T07:03:33.724Z,17.30
2024-01-15T07:06:00.647Z,24.77
2024-01-15T07:08:27.379Z,19.73
2024-01-15T07:10:54.086Z,22.83
2024-01-15T07:13:20.854Z,25.90
2024-01-15T07:15:47.518Z,24.75
2024-01-15T07:18:14.289Z,24.00
2024-01-15T07:20:41.073Z,23.85
2024-01-15T07:23:08.013Z,21.63
2024-01-15T07:25:34.983Z,21.65
2024-01-15T07:28:01.807Z,23.65
2024-01-15T07:30:28.598Z,19.50
2024-01-15T07:32:55.367Z,24.92
2024-01-15T07:35:22.248Z,17.92
2024-01-15T07:37:49.005Z,17.58
2024-01-15T07:40:16.076Z,22.75
2024-01-15T07:42:43.823Z,19.52
2024-01-15T07:45:11.981Z,16.60
2024-01-15T07:47:38.757Z,15.95
2024-01-15T07:50:06.616Z,21.27
2024-01-15T07:52:33.632Z,20.92
2024-01-15T07:55:04.920Z,15.45
2024-01-15T07:57:32.033Z,21.52
2024-01-15T07:59:58.729Z,19.23
2024-01-15T08:02:25.412Z,19.27
2024-01-15T08:04:52.095Z,23.85
2024-01-15T08:07:19.136Z,21.08
2024-01-15T08:09:47.717Z,25.15
2024-01-15T08:12:14.573Z,17.23
2024-01-15T08:14:41.388Z,16.92
2024-01-15T08:17:07.987Z,17.98
2024-01-15T08:19:34.748Z,23.98
2024-01-15T08:22:01.600Z,18.48
2024-01-15T08:24:28.355Z,20.13
2024-01-15T08:26:55.274Z,18.58
2024-01-15T08:29:22.951Z,20.88
2024-01-15T08:31:49.916Z,22.25
2024-01-15T08:34:16.692Z,21.38
2024-01-15T08:36:43.546Z,20.38
2024-01-15T08:39:10.410Z,18.70
2024-01-15T08:41:37.367Z,17.00
2024-01-15T08:44:04.287Z,20.55
2024-01-15T08:46:30.938Z,25.60
2024-01-15T08:48:57.702Z,21.27
2024-01-15T08:51:24.497Z,24.23
2024-01-15T08:53:51.171Z,16.20
2024-01-15T08:56:17.775Z,22.92
2024-01-15T08:58:44.580Z,15.82
2024-01-15T09:01:11.295Z,18.42
2024-01-15T09:03:38.234Z,17.65
2024-01-15T09:06:05.208Z,22.05
2024-01-15T09:08:31.921Z,20.08
2024-01-15T09:10:59.429Z,20.80
2024-01-15T09:13:26.124Z,17.73
2024-01-15T09:15:52.820Z,16.10
2024-01-15T09:18:19.547Z,14.13
2024-01-15T09:20:46.210Z,23.52
2024-01-15T09:23:13.205Z,16.73
2024-01-15T09:25:40.306Z,17.92
2024-01-15T09:28:06.916Z,16.55
2024-01-15T09:30:33.721Z,17.15
2024-01-15T09:33:00.565Z,19.55
2024-01-15T09:35:27.292Z,18.27
2024-01-15T09:37:54.027Z,14.73
2024-01-15T09:40:22.035Z,21.25
2024-01-15T09:42:48.892Z,19.58
2024-01-15T09:45:16.320Z,20.70
2024-01-15T09:47:45.802Z,18.85
2024-01-15T09:50:16.456Z,17.85
2024-01-15T09:52:45.442Z,18.75
2024-01-15T09:55:13.056Z,14.63
2024-01-15T09:57:41.021Z,14.70
2024-01-15T10:00:11.686Z,14.77
2024-01-15T10:02:38.683Z,16.50
2024-01-15T10:05:05.971Z,18.52
2024-01-15T10:07:37.018Z,20.33
2024-01-15T10:10:04.600Z,20.88
2024-01-15T10:12:31.733Z,19.52
2024-01-15T10:14:58.553Z,14.15
2024-01-15T10:17:28.294Z,15.13
2024-01-15T10:19:55.120Z,15.65
2024-01-15T10:22:21.921Z,16.63
2024-01-15T10:24:49.271Z,18.00
2024-01-15T10:27:16.762Z,13.30
2024-01-15T10:29:43.661Z,13.50
2024-01-15T10:32:10.995Z,12.52
2024-01-15T10:34:46.564Z,16.35
2024-01-15T10:37:13.291Z,12.15
2024-01-15T10:39:40.453Z,13.95
2024-01-15T10:42:08.191Z,16.38
2024-01-15T10:44:35.516Z,11.68
2024-01-15T10:47:02.253Z,15.85
2024-01-15T10:49:32.752Z,8.90
2024-01-15T10:52:02.478Z,12.18
2024-01-15T10:54:30.392Z,14.38
2024-01-15T10:57:00.312Z,11.70
2024-01-15T10:59:27.093Z,14.30
2024-01-15T11:01:55.620Z,12.73
2024-01-15T11:04:24.313Z,12.85
2024-01-15T11:06:54.573Z,14.40
2024-01-15T11:09:21.384Z,14.48
2024-01-15T11:11:50.683Z,15.13
2024-01-15T11:15:02.671Z,17.77
2024-01-15T11:18:00.152Z,11.95
2024-01-15T11:20:26.962Z,13.80
2024-01-15T11:22:53.649Z,13.25
2024-01-15T11:25:20.892Z,10.15
2024-01-15T11:27:52.495Z,12.75
2024-01-15T11:30:23.020Z,11.70
2024-01-15T11:32:49.882Z,10.15
2024-01-15T11:35:16.693Z,11.15
2024-01-15T11:37:52.856Z,10.63
2024-01-15T11:40:21.241Z,14.00
2024-01-15T11:42:49.132Z,10.98
2024-01-15T11:45:20.732Z,14.63
2024-01-15T11:48:13.269Z,8.93
2024-01-15T11:50:50.223Z,15.57
2024-01-15T11:53:41.615Z,13.07
2024-01-15T11:56:17.622Z,11.15
2024-01-15T11:58:45.043Z,12.82
2024-01-15T12:01:12.712Z,13.55
2024-01-15T12:03:39.599Z,14.38
2024-01-15T12:06:07.997Z,13.73
2024-01-15T12:08:34.694Z,11.55
2024-01-15T12:11:01.934Z,11.43
2024-01-15T12:13:28.742Z,11.82
2024-01-15T12:15:55.802Z,16.33
2024-01-15T12:18:22.649Z,10.43
2024-01-15T12:20:49.613Z,12.38
2024-01-15T12:23:17.665Z,12.93
2024-01-15T12:25:44.519Z,14.00
2024-01-15T12:28:11.440Z,13.60
2024-01-15T12:30:39.092Z,10.57
2024-01-15T12:33:07.165Z,11.07
2024-01-15T12:35:36.847Z,14.48
2024-01-15T12:38:04.268Z,11.88
2024-01-15T12:40:33.514Z,17.05
2024-01-15T12:43:01.155Z,14.20
2024-01-15T12:45:27.946Z,13.27
2024-01-15T12:47:55.258Z,11.10
2024-01-15T12:50:26.308Z,10.75
2024-01-15T12:52:53.007Z,12.00
2024-01-15T12:55:20.079Z,11.85
2024-01-15T12:57:47.119Z,9.60
2024-01-15T13:00:15.252Z,11.30
2024-01-15T13:02:43.979Z,10.57
2024-01-15T13:05:15.157Z,11.07
2024-01-15T13:07:43.246Z,11.68
2024-01-15T13:10:10.508Z,12.25
2024-01-15T13:12:39.151Z,10.77
2024-01-15T13:15:06.293Z,11.02
2024-01-15T13:17:33.041Z,9.55
2024-01-15T13:20:00.439Z,9.55
2024-01-15T13:22:32.792Z,10.60
2024-01-15T13:25:00.218Z,12.88
2024-01-15T13:27:26.982Z,9.73
2024-01-15T13:29:53.625Z,10.55
2024-01-15T13:32:29.285Z,9.75
2024-01-15T13:34:57.755Z,9.93
2024-01-15T13:37:25.586Z,5.60
2024-01-15T13:39:53.700Z,7.88
2024-01-15T13:42:23.210Z,9.85
2024-01-15T13:44:49.855Z,7.20
2024-01-15T13:47:16.518Z,8.68
2024-01-15T13:49:43.136Z,8.88
2024-01-15T13:52:09.780Z,9.95
2024-01-15T13:54:45.525Z,9.13
2024-01-15T13:57:17.132Z,9.88
2024-01-15T13:59:43.924Z,10.25
2024-01-15T14:02:10.977Z,8.68
2024-01-15T14:04:38.811Z,8.13
2024-01-15T14:07:05.647Z,7.50
2024-01-15T14:09:33.011Z,12.02
2024-01-15T14:12:00.001Z,7.53
2024-01-15T14:14:26.710Z,8.95
2024-01-15T14:16:53.255Z,8.45
2024-01-15T14:19:20.198Z,6.85
2024-01-15T14:21:47.067Z,5.43
2024-01-15T14:24:14.245Z,6.03
2024-01-15T14:26:40.976Z,8.93
2024-01-15T14:29:07.573Z,7.40
2024-01-15T14:31:35.838Z,7.43
2024-01-15T14:34:04.283Z,8.65
2024-01-15T14:36:31.331Z,8.60
2024-01-15T14:38:58.054Z,9.32
2024-01-15T14:41:25.083Z,9.50
2024-01-15T14:43:51.673Z,7.30
2024-01-15T14:46:18.254Z,7.57
2024-01-15T14:48:46.033Z,6.20
2024-01-15T14:51:13.177Z,6.43
2024-01-15T14:53:40.052Z,6.50
2024-01-15T14:56:06.845Z,7.13
2024-01-15T14:58:33.738Z,4.85
2024-01-15T15:01:00.712Z,5.05
2024-01-15T15:03:27.842Z,11.48
2024-01-15T15:05:54.792Z,5.53
2024-01-15T15:08:21.511Z,8.70
2024-01-15T15:10:48.227Z,5.93
2024-01-15T15:13:15.344Z,7.45
2024-01-15T15:15:42.651Z,6.63
2024-01-15T15:18:09.362Z,7.63
2024-01-15T15:20:36.158Z,9.00
2024-01-15T15:23:04.078Z,9.20
2024-01-15T15:25:30.810Z,8.20
2024-01-15T15:27:57.660Z,6.20
2024-01-15T15:30:24.424Z,6.55
2024-01-15T15:32:51.223Z,10.13
2024-01-15T15:35:18.199Z,7.97
2024-01-15T15:37:44.944Z,7.20
2024-01-15T15:40:12.428Z,5.50
2024-01-15T15:42:39.376Z,9.98
2024-01-15T15:45:06.400Z,10.45
2024-01-15T15:47:33.589Z,7.10
2024-01-15T15:50:00.740Z,7.03
2024-01-15T15:52:27.993Z,8.77
2024-01-15T15:54:54.795Z,7.65
2024-01-15T15:57:22.006Z,8.68
2024-01-15T15:59:48.645Z,9.43
2024-01-15T16:02:16.034Z,10.05
2024-01-15T16:04:42.725Z,11.20
2024-01-15T16:07:10.778Z,6.13
2024-01-15T16:09:37.798Z,9.00
2024-01-15T16:12:04.994Z,4.95
2024-01-15T16:14:31.551Z,9.38
2024-01-15T16:23:13.557Z,3.80
2024-01-15T16:23:26.908Z,4.15
2024-01-15T16:23:42.312Z,7.47
2024-01-15T16:25:19.603Z,4.68
2024-01-15T16:27:47.461Z,7.43
2024-01-15T16:30:24.852Z,6.63
2024-01-15T16:32:56.736Z,4.05
2024-01-15T16:35:24.004Z,5.93
2024-01-15T16:37:51.099Z,4.70
2024-01-15T16:40:17.949Z,5.25
2024-01-15T16:42:46.111Z,4.60
2024-01-15T16:45:13.196Z,5.47
2024-01-15T16:47:40.052Z,7.03
2024-01-15T16:50:07.092Z,7.00
2024-01-15T16:52:33.832Z,6.47
2024-01-15T16:55:01.542Z,3.28
2024-01-15T16:57:28.268Z,4.07
2024-01-15T16:59:54.913Z,6.35
2024-01-15T17:02:21.654Z,2.75
2024-01-15T17:04:48.344Z,5.97
2024-01-15T17:07:15.128Z,4.65
2024-01-15T17:09:41.938Z,5.68
2024-01-15T17:12:08.815Z,5.25
2024-01-15T17:14:35.802Z,3.85
2024-01-15T17:17:02.740Z,4.03
2024-01-15T17:19:29.482Z,9.48
2024-01-15T17:21:56.258Z,2.50
2024-01-15T17:24:22.875Z,5.78
2024-01-15T17:26:50.156Z,4.85
2024-01-15T17:29:17.974Z,5.65
2024-01-15T17:31:44.825Z,6.90
2024-01-15T17:34:11.824Z,3.67
2024-01-15T17:36:39.855Z,11.23
2024-01-15T17:39:07.201Z,6.88
2024-01-15T17:41:34.498Z,3.47
2024-01-15T17:44:02.125Z,5.30
2024-01-15T17:46:30.182Z,4.20
2024-01-15T17:49:03.486Z,3.80
2024-01-15T17:51:37.814Z,2.00
2024-01-15T17:54:05.593Z,5.18
2024-01-15T17:56:32.390Z,4.78
2024-01-15T17:58:59.054Z,2.30
2024-01-15T18:01:25.774Z,4.43
2024-01-15T18:03:53.763Z,8.93
2024-01-15T18:06:20.745Z,5.63
2024-01-15T18:08:47.553Z,2.85
2024-01-15T18:11:20.598Z,6.43
2024-01-15T18:13:47.380Z,9.90
2024-01-15T18:16:14.879Z,4.95
2024-01-15T18:18:41.991Z,3.45
2024-01-15T18:21:09.027Z,3.90
2024-01-15T18:23:35.646Z,5.30
2024-01-15T18:26:03.610Z,7.15
2024-01-15T18:28:30.227Z,7.38
2024-01-15T18:30:56.924Z,4.28
2024-01-15T18:33:24.282Z,5.68
2024-01-15T18:35:51.572Z,5.75
2024-01-15T18:38:18.998Z,6.22
2024-01-15T18:40:45.596Z,2.13
2024-01-15T18:43:12.422Z,2.83
2024-01-15T18:45:39.109Z,3.35
2024-01-15T18:48:07.601Z,4.10
2024-01-15T18:50:34.424Z,5.72
2024-01-15T18:53:01.724Z,6.53
2024-01-15T18:55:28.378Z,5.75
2024-01-15T18:57:58.346Z,5.43
2024-01-15T19:00:26.726Z,2.92
2024-01-15T19:02:58.829Z,4.55
2024-01-15T19:05:26.141Z,4.43
2024-01-15T19:07:52.987Z,2.95
2024-01-15T19:10:19.763Z,4.38
2024-01-15T19:12:46.472Z,3.53
2024-01-15T19:15:13.184Z,3.70
2024-01-15T19:17:40.004Z,4.57
2024-01-15T19:20:08.260Z,2.78
2024-01-15T19:22:34.869Z,2.83
2024-01-15T19:25:02.033Z,4.32
2024-01-15T19:27:29.900Z,10.32
2024-01-15T19:29:56.492Z,5.55
2024-01-15T19:32:23.409Z,2.90
2024-01-15T19:34:50.071Z,8.18
2024-01-15T19:37:16.812Z,3.53
2024-01-15T19:39:43.610Z,2.80
2024-01-15T19:42:10.240Z,4.13
2024-01-15T19:44:37.013Z,6.82
2024-01-15T19:47:03.870Z,3.53
2024-01-15T19:49:30.664Z,4.68
2024-01-15T19:51:57.412Z,3.03
2024-01-15T19:54:24.110Z,2.40
2024-01-15T19:56:50.847Z,4.28
2024-01-15T19:59:19.117Z,4.82
2024-01-15T20:01:46.145Z,3.47
2024-01-15T20:04:12.891Z,5.05
2024-01-15T20:06:39.595Z,5.38
2024-01-15T20:09:06.264Z,3.15
2024-01-15T20:11:32.920Z,5.13
2024-01-15T20:13:59.747Z,4.70
2024-01-15T20:16:26.826Z,3.90
2024-01-15T20:18:53.868Z,2.25
2024-01-15T20:21:20.808Z,5.85
2024-01-15T20:23:55.042Z,6.35
2024-01-15T20:26:25.847Z,1.70
2024-01-15T20:28:53.619Z,8.27
2024-01-15T20:31:20.306Z,2.03
2024-01-15T20:33:47.073Z,4.55
2024-01-15T20:36:14.529Z,8.05
2024-01-15T20:38:41.278Z,2.33
2024-01-15T20:41:08.365Z,4.57
2024-01-15T20:43:35.999Z,5.07
2024-01-15T20:46:03.423Z,16.92
2024-01-15T20:48:30.646Z,3.05
2024-01-15T20:50:58.939Z,4.15
2024-01-15T20:53:25.665Z,1.92
2024-01-15T20:55:52.499Z,5.88
2024-01-15T20:58:23.824Z,2.13
2024-01-15T21:00:51.047Z,2.40
2024-01-15T21:03:18.550Z,2.45
2024-01-15T21:05:45.519Z,2.42
2024-01-15T21:08:12.379Z,0.88
2024-01-15T21:10:39.088Z,1.45
2024-01-15T21:13:07.219Z,2.65
2024-01-15T21:15:34.703Z,1.25
2024-01-15T21:18:02.453Z,5.25
2024-01-15T21:20:29.264Z,1.40
2024-01-15T21:22:55.865Z,2.45
2024-01-15T21:25:22.773Z,4.43
2024-01-15T21:27:49.456Z,1.45
2024-01-15T21:30:16.118Z,6.43
2024-01-15T21:32:43.266Z,4.22
2024-01-15T21:35:13.341Z,3.50
2024-01-15T21:37:41.184Z,3.03
2024-01-15T21:40:08.411Z,1.50
2024-01-15T21:42:35.424Z,3.63
2024-01-15T21:45:02.205Z,1.95
2024-01-15T21:47:29.672Z,4.82
2024-01-15T21:49:59.400Z,5.13
2024-01-15T21:52:26.148Z,6.45
2024-01-15T21:54:52.871Z,2.63
2024-01-15T21:57:19.754Z,2.70
2024-01-15T21:59:46.706Z,3.05
2024-01-15T22:02:13.947Z,3.30
2024-01-15T22:04:40.662Z,10.63
2024-01-15T22:07:07.558Z,4.57
2024-01-15T22:09:34.940Z,3.90
2024-01-15T22:12:04.493Z,5.85
2024-01-15T22:14:31.135Z,5.95
2024-01-15T22:16:57.821Z,3.20
2024-01-15T22:19:24.610Z,5.15
2024-01-15T22:21:53.124Z,12.20
2024-01-15T22:24:19.993Z,2.20
2024-01-15T22:26:46.722Z,3.25
2024-01-15T22:29:13.367Z,2.75
2024-01-15T22:31:40.392Z,8.68
2024-01-15T22:34:07.714Z,3.40
2024-01-15T22:36:34.422Z,3.90
2024-01-15T22:39:01.161Z,2.47
2024-01-15T22:41:27.813Z,4.68
2024-01-15T22:43:54.470Z,4.32
2024-01-15T22:46:21.134Z,3.97
2024-01-15T22:48:47.885Z,3.38
2024-01-15T22:51:14.641Z,4.22
2024-01-15T22:53:41.443Z,6.00
2024-01-15T22:56:08.143Z,5.20
2024-01-15T22:58:34.869Z,2.00
2024-01-15T23:01:01.585Z,5.07
2024-01-15T23:03:28.707Z,1.90
2024-01-15T23:05:55.476Z,9.38
2024-01-15T23:08:23.203Z,1.83
2024-01-15T23:10:50.037Z,4.32
2024-01-15T23:13:16.844Z,2.38
2024-01-15T23:15:43.790Z,3.50
2024-01-15T23:18:13.413Z,3.17
2024-01-15T23:20:40.266Z,4.10
2024-01-15T23:23:06.938Z,7.03
2024-01-15T23:25:33.522Z,5.68
2024-01-15T23:28:00.179Z,2.75
2024-01-15T23:30:26.774Z,4.50
2024-01-15T23:32:53.661Z,5.30
2024-01-15T23:35:22.302Z,3.55
2024-01-15T23:37:48.980Z,5.13
2024-01-15T23:40:15.684Z,3.97
2024-01-15T23:42:42.290Z,1.83
2024-01-15T23:45:10.028Z,2.85
2024-01-15T23:47:37.316Z,3.70
2024-01-15T23:50:04.980Z,4.03
2024-01-15T23:52:31.992Z,5.97
2024-01-15T23:54:58.627Z,2.40
2024-01-15T23:57:25.402Z,2.75
2024-01-15T23:59:52.160Z,3.25
